createdAt,value
2023-02-18T00:01:31.722Z,12.37
2023-02-18T00:04:01.143Z,12.45
2023-02-18T00:06:30.954Z,12.46
2023-02-18T00:09:02.302Z,12.47
2023-02-18T00:11:33.121Z,12.51
2023-02-18T00:14:03.256Z,12.50
2023-02-18T00:16:33.416Z,12.52
2023-02-18T00:19:04.045Z,12.59
2023-02-18T00:21:33.602Z,12.63
2023-02-18T00:24:01.955Z,12.64
2023-02-18T00:26:30.335Z,12.71
2023-02-18T00:28:58.650Z,12.67
2023-02-18T00:31:30.212Z,12.73
2023-02-18T00:34:02.215Z,12.81
2023-02-18T00:36:31.038Z,12.84
2023-02-18T00:39:03.623Z,12.85
2023-02-18T00:41:32.826Z,12.88
2023-02-18T00:44:01.171Z,12.92
2023-02-18T00:46:30.323Z,12.94
2023-02-18T00:48:58.668Z,12.91
2023-02-18T00:51:28.680Z,12.91
2023-02-18T00:53:57.391Z,12.97
2023-02-18T00:56:25.957Z,13.00
2023-02-18T00:58:54.699Z,13.07
2023-02-18T01:01:23.225Z,13.08
2023-02-18T01:03:51.548Z,13.04
2023-02-18T01:06:19.841Z,13.10
2023-02-18T01:08:51.084Z,13.11
2023-02-18T01:11:19.435Z,12.97
2023-02-18T01:13:47.846Z,13.00
2023-02-18T01:16:17.110Z,12.91
2023-02-18T01:18:47.770Z,12.94
2023-02-18T01:21:16.762Z,12.94
2023-02-18T01:23:45.086Z,12.91
2023-02-18T01:26:18.730Z,12.95
2023-02-18T01:28:47.010Z,12.87
2023-02-18T01:31:15.942Z,12.92
2023-02-18T01:33:44.569Z,12.85
2023-02-18T01:36:13.248Z,12.80
2023-02-18T01:38:41.860Z,12.84
2023-02-18T01:41:10.220Z,12.85
2023-02-18T01:43:40.235Z,12.94
2023-02-18T01:46:19.636Z,12.86
2023-02-18T01:48:52.820Z,12.86
2023-02-18T01:51:24.880Z,12.86
2023-02-18T01:53:56.891Z,12.92
2023-02-18T01:56:29.159Z,12.94
2023-02-18T01:59:02.536Z,12.93
2023-02-18T02:01:32.388Z,12.92
2023-02-18T02:04:00.734Z,13.00
2023-02-18T02:06:29.059Z,13.00
2023-02-18T02:09:00.465Z,13.03
2023-02-18T02:11:47.358Z,13.09
2023-02-18T02:14:30.228Z,13.07
2023-02-18T02:17:04.692Z,13.05
2023-02-18T02:20:23.991Z,13.10
2023-02-18T02:23:25.196Z,13.11
2023-02-18T02:26:23.146Z,13.11
2023-02-18T02:29:26.136Z,13.10
2023-02-18T02:32:30.033Z,13.21
2023-02-18T02:35:04.190Z,13.22
2023-02-18T02:37:41.541Z,13.30
2023-02-18T02:40:21.561Z,13.25
2023-02-18T02:43:03.439Z,13.31
2023-02-18T02:45:44.262Z,13.33
2023-02-18T02:48:21.312Z,13.36
2023-02-18T02:51:00.125Z,13.26
2023-02-18T02:53:32.189Z,13.37
2023-02-18T02:56:00.646Z,13.41
2023-02-18T02:58:29.894Z,13.49
2023-02-18T03:01:26.451Z,13.38
2023-02-18T03:04:26.491Z,13.40
2023-02-18T03:07:11.637Z,13.39
2023-02-18T03:09:56.558Z,13.48
2023-02-18T03:12:31.422Z,13.46
2023-02-18T03:15:06.993Z,13.32
2023-02-18T03:17:39.753Z,13.27
2023-02-18T03:20:11.866Z,13.35
2023-02-18T03:22:46.142Z,13.46
2023-02-18T03:25:15.761Z,13.52
2023-02-18T03:27:47.251Z,13.58
2023-02-18T03:30:19.446Z,13.52
2023-02-18T03:32:50.335Z,13.33
2023-02-18T03:35:21.917Z,13.50
2023-02-18T03:37:55.712Z,13.60
2023-02-18T03:40:24.162Z,13.67
2023-02-18T03:42:52.597Z,13.62
2023-02-18T03:45:20.979Z,13.65
2023-02-18T03:47:49.727Z,13.66
2023-02-18T03:50:18.166Z,13.50
2023-02-18T03:52:46.556Z,13.47
2023-02-18T03:55:16.278Z,13.52
2023-02-18T03:57:44.568Z,13.60
2023-02-18T04:00:13.635Z,13.55
2023-02-18T04:02:42.327Z,13.69
2023-02-18T04:05:11.329Z,13.62
2023-02-18T04:07:39.801Z,13.79
2023-02-18T04:10:09.593Z,13.84
2023-02-18T04:12:39.315Z,13.83
2023-02-18T04:15:08.021Z,13.91
2023-02-18T04:17:36.354Z,13.88
2023-02-18T04:20:05.100Z,13.78
2023-02-18T04:22:33.558Z,13.82
2023-02-18T04:25:01.778Z,13.82
2023-02-18T04:27:30.117Z,13.86
2023-02-18T04:30:00.181Z,13.90
2023-02-18T04:32:28.587Z,13.98
2023-02-18T04:34:57.101Z,14.00
2023-02-18T04:37:25.394Z,13.90
2023-02-18T04:39:53.653Z,14.00
2023-02-18T04:42:22.015Z,14.04
2023-02-18T04:44:50.411Z,14.03
2023-02-18T04:47:20.142Z,13.94
2023-02-18T04:49:48.514Z,13.93
2023-02-18T04:52:16.811Z,13.86
2023-02-18T04:54:45.178Z,13.92
2023-02-18T04:57:13.591Z,13.91
2023-02-18T04:59:42.111Z,13.91
2023-02-18T05:02:10.379Z,13.84
2023-02-18T05:04:40.116Z,13.76
2023-02-18T05:07:08.446Z,13.73
2023-02-18T05:09:36.713Z,13.64
2023-02-18T05:12:05.332Z,13.56
2023-02-18T05:14:33.668Z,13.65
2023-02-18T05:17:01.937Z,13.55
2023-02-18T05:19:30.204Z,13.65
2023-02-18T05:21:59.900Z,13.65
2023-02-18T05:24:28.156Z,13.62
2023-02-18T05:26:56.542Z,13.70
2023-02-18T05:29:24.756Z,13.69
2023-02-18T05:31:53.316Z,13.75
2023-02-18T05:34:21.654Z,13.80
2023-02-18T05:36:49.974Z,13.88
2023-02-18T05:39:19.624Z,13.91
2023-02-18T05:41:47.900Z,13.82
2023-02-18T05:44:31.502Z,13.90
2023-02-18T05:47:00.158Z,13.97
2023-02-18T05:49:28.656Z,13.99
2023-02-18T05:51:57.011Z,13.99
2023-02-18T05:54:27.193Z,13.92
2023-02-18T05:56:56.200Z,13.99
2023-02-18T05:59:24.896Z,14.07
2023-02-18T06:01:53.461Z,14.10
2023-02-18T06:04:21.979Z,14.15
2023-02-18T06:06:50.281Z,14.19
2023-02-18T06:09:18.565Z,14.11
2023-02-18T06:11:48.268Z,14.05
2023-02-18T06:14:16.651Z,14.07
2023-02-18T06:16:44.927Z,14.03
2023-02-18T06:19:13.201Z,14.14
2023-02-18T06:21:41.482Z,14.21
2023-02-18T06:24:10.094Z,14.09
2023-02-18T06:26:38.446Z,14.08
2023-02-18T06:29:08.092Z,14.26
2023-02-18T06:31:36.570Z,14.34
2023-02-18T06:34:04.890Z,14.34
2023-02-18T06:36:33.137Z,14.20
2023-02-18T06:39:03.710Z,14.20
2023-02-18T06:41:32.159Z,14.26
2023-02-18T06:44:00.488Z,14.19
2023-02-18T06:46:30.244Z,14.34
2023-02-18T06:48:58.546Z,14.24
2023-02-18T06:51:27.133Z,14.33
2023-02-18T06:53:55.468Z,14.40
2023-02-18T06:56:23.775Z,14.40
2023-02-18T06:58:51.990Z,14.33
2023-02-18T07:01:20.268Z,14.37
2023-02-18T07:03:50.399Z,14.35
2023-02-18T07:06:18.988Z,14.36
2023-02-18T07:08:47.329Z,14.48
2023-02-18T07:11:15.664Z,14.47
2023-02-18T07:13:43.949Z,14.59
2023-02-18T07:16:12.639Z,14.71
2023-02-18T07:18:41.027Z,14.71
2023-02-18T07:21:10.718Z,14.81
2023-02-18T07:23:39.005Z,14.79
2023-02-18T07:26:09.446Z,14.80
2023-02-18T07:28:38.031Z,14.73
2023-02-18T07:31:06.776Z,14.82
2023-02-18T07:33:35.217Z,14.71
2023-02-18T07:36:04.125Z,14.77
2023-02-18T07:38:33.970Z,14.69
2023-02-18T07:41:02.546Z,14.71
2023-02-18T07:43:30.875Z,14.77
2023-02-18T07:45:59.169Z,14.86
2023-02-18T07:48:27.561Z,14.81
2023-02-18T07:50:55.914Z,14.84
2023-02-18T07:53:24.174Z,14.95
2023-02-18T07:55:54.160Z,15.00
2023-02-18T07:58:24.529Z,15.04
2023-02-18T08:00:54.510Z,15.13
2023-02-18T08:03:25.129Z,15.16
2023-02-18T08:05:54.605Z,15.26
2023-02-18T08:08:26.191Z,15.29
2023-02-18T08:10:58.622Z,15.34
2023-02-18T08:13:27.971Z,15.30
2023-02-18T08:15:56.616Z,15.34
2023-02-18T08:18:26.829Z,15.40
2023-02-18T08:20:55.805Z,15.44
2023-02-18T08:23:25.757Z,15.38
2023-02-18T08:25:55.871Z,15.49
2023-02-18T08:28:25.142Z,15.44
2023-02-18T08:30:55.853Z,15.58
2023-02-18T08:33:25.066Z,15.58
2023-02-18T08:35:56.619Z,15.54
2023-02-18T08:38:26.020Z,15.42
2023-02-18T08:41:05.345Z,15.54
2023-02-18T08:43:33.896Z,15.53
2023-02-18T08:46:02.213Z,15.58
2023-02-18T08:48:31.087Z,15.60
2023-02-18T08:50:59.602Z,15.62
2023-02-18T08:53:27.958Z,15.63
2023-02-18T08:55:56.226Z,15.66
2023-02-18T08:58:25.879Z,15.55
2023-02-18T09:00:54.162Z,15.58
2023-02-18T09:03:22.507Z,15.62
2023-02-18T09:05:50.756Z,15.51
2023-02-18T09:08:19.610Z,15.54
2023-02-18T09:10:47.901Z,15.41
2023-02-18T09:13:16.252Z,15.48
2023-02-18T09:15:45.982Z,15.58
2023-02-18T09:18:14.237Z,15.53
2023-02-18T09:20:42.548Z,15.49
2023-02-18T09:23:10.804Z,15.53
2023-02-18T09:25:41.068Z,15.57
2023-02-18T09:28:09.447Z,15.51
2023-02-18T09:30:37.809Z,15.43
2023-02-18T09:33:07.831Z,15.53
2023-02-18T09:35:40.602Z,15.46
2023-02-18T09:38:09.772Z,15.44
2023-02-18T09:40:41.104Z,15.46
2023-02-18T09:43:19.454Z,15.43
2023-02-18T09:45:47.772Z,15.33
2023-02-18T09:48:17.462Z,15.07
2023-02-18T09:50:51.536Z,15.21
2023-02-18T09:53:20.375Z,15.16
2023-02-18T09:55:50.137Z,15.19
2023-02-18T09:58:21.451Z,15.24
2023-02-18T10:00:52.168Z,15.40
2023-02-18T10:03:24.656Z,15.32
2023-02-18T10:06:00.517Z,15.18
2023-02-18T10:08:31.244Z,15.19
2023-02-18T10:10:59.517Z,15.28
2023-02-18T10:13:31.385Z,15.23
2023-02-18T10:15:59.891Z,15.31
2023-02-18T10:18:32.682Z,15.31
2023-02-18T10:21:09.008Z,15.27
2023-02-18T10:23:40.172Z,15.30
2023-02-18T10:26:13.959Z,15.21
2023-02-18T10:28:42.398Z,15.24
2023-02-18T10:31:12.432Z,15.30
2023-02-18T10:33:48.728Z,15.27
2023-02-18T10:36:25.370Z,15.19
2023-02-18T10:39:19.331Z,15.17
2023-02-18T10:41:56.833Z,15.25
2023-02-18T10:44:35.770Z,15.36
2023-02-18T10:47:18.181Z,15.34
2023-02-18T10:50:10.301Z,15.27
2023-02-18T10:52:42.345Z,15.29
2023-02-18T10:55:12.936Z,15.34
2023-02-18T10:57:49.035Z,15.39
2023-02-18T11:00:20.854Z,15.37
2023-02-18T11:03:02.090Z,15.38
2023-02-18T11:05:32.365Z,15.48
2023-02-18T11:08:02.718Z,15.44
2023-02-18T11:10:33.807Z,15.49
2023-02-18T11:13:03.905Z,15.41
2023-02-18T11:15:32.661Z,15.53
2023-02-18T11:18:14.389Z,15.54
2023-02-18T11:20:56.756Z,15.59
2023-02-18T11:23:25.790Z,15.74
2023-02-18T11:26:06.019Z,15.72
2023-02-18T11:28:43.715Z,15.66
2023-02-18T11:31:18.060Z,15.80
2023-02-18T11:33:51.104Z,15.83
2023-02-18T11:36:25.452Z,15.86
2023-02-18T11:38:56.460Z,15.93
2023-02-18T11:41:33.037Z,15.91
2023-02-18T11:44:02.644Z,15.92
2023-02-18T11:46:30.939Z,15.84
2023-02-18T11:49:13.190Z,15.89
2023-02-18T11:51:50.702Z,16.03
2023-02-18T11:54:27.906Z,16.07
2023-02-18T11:56:59.452Z,15.98
2023-02-18T11:59:29.399Z,16.03
2023-02-18T12:02:07.366Z,16.07
2023-02-18T12:04:42.955Z,16.16
2023-02-18T12:07:21.843Z,16.21
2023-02-18T12:09:54.895Z,16.22
2023-02-18T12:12:28.760Z,16.31
2023-02-18T12:14:58.039Z,16.30
2023-02-18T12:17:41.068Z,16.45
2023-02-18T12:20:42.339Z,16.42
2023-02-18T12:23:23.242Z,16.40
2023-02-18T12:25:59.829Z,16.36
2023-02-18T12:28:49.812Z,16.50
2023-02-18T12:31:52.893Z,16.50
2023-02-18T12:34:33.903Z,16.43
2023-02-18T12:37:13.244Z,16.49
2023-02-18T12:40:06.205Z,16.43
2023-02-18T12:42:48.794Z,16.45
2023-02-18T12:45:39.562Z,16.59
2023-02-18T12:48:30.261Z,16.59
2023-02-18T12:51:29.414Z,16.59
2023-02-18T12:54:16.477Z,16.63
2023-02-18T12:57:08.561Z,16.64
2023-02-18T13:00:09.244Z,16.56
2023-02-18T13:03:09.625Z,16.67
2023-02-18T13:05:42.904Z,16.66
2023-02-18T13:08:32.546Z,16.67
2023-02-18T13:11:17.291Z,16.64
2023-02-18T13:13:55.031Z,16.77
2023-02-18T13:16:24.688Z,16.78
2023-02-18T13:19:02.872Z,16.69
2023-02-18T13:21:33.175Z,16.88
2023-02-18T13:24:06.787Z,16.79
2023-02-18T13:26:36.319Z,16.84
2023-02-18T13:29:23.782Z,16.58
2023-02-18T13:32:10.823Z,16.75
2023-02-18T13:34:48.188Z,16.84
2023-02-18T13:37:24.315Z,16.94
2023-02-18T13:39:56.209Z,16.81
2023-02-18T13:42:36.714Z,16.81
2023-02-18T13:45:25.791Z,16.82
2023-02-18T13:47:55.192Z,16.78
2023-02-18T13:50:44.092Z,16.67
2023-02-18T13:53:25.509Z,16.72
2023-02-18T13:56:01.472Z,16.82
2023-02-18T13:58:36.881Z,16.88
2023-02-18T14:01:14.566Z,16.77
2023-02-18T14:03:58.456Z,16.74
2023-02-18T14:06:28.630Z,16.96
2023-02-18T14:09:36.869Z,16.88
2023-02-18T14:12:25.739Z,16.74
2023-02-18T14:14:54.857Z,16.82
2023-02-18T14:17:37.087Z,16.82
2023-02-18T14:20:38.821Z,16.79
2023-02-18T14:23:34.331Z,16.74
2023-02-18T14:26:08.545Z,16.79
2023-02-18T14:28:41.824Z,16.87
2023-02-18T14:31:30.638Z,16.91
2023-02-18T14:34:43.010Z,16.91
2023-02-18T14:37:47.773Z,16.75
2023-02-18T14:40:26.661Z,16.73
2023-02-18T14:43:03.613Z,16.66
2023-02-18T14:45:48.562Z,16.55
2023-02-18T14:48:37.187Z,16.40
2023-02-18T14:51:07.883Z,16.27
2023-02-18T14:53:42.075Z,16.39
2023-02-18T14:56:13.320Z,16.39
2023-02-18T14:58:45.161Z,16.28
2023-02-18T15:01:20.555Z,16.24
2023-02-18T15:03:50.725Z,16.28
2023-02-18T15:06:32.658Z,16.07
2023-02-18T15:09:01.617Z,16.18
2023-02-18T15:11:38.233Z,16.11
2023-02-18T15:14:13.217Z,16.04
2023-02-18T15:16:42.003Z,16.13
2023-02-18T15:19:18.179Z,16.00
2023-02-18T15:21:50.039Z,15.85
2023-02-18T15:24:27.002Z,16.00
2023-02-18T15:26:57.548Z,15.98
2023-02-18T15:29:27.891Z,15.99
2023-02-18T15:31:58.844Z,15.96
2023-02-18T15:34:37.344Z,15.84
2023-02-18T15:37:08.730Z,15.82
2023-02-18T15:39:39.612Z,15.81
2023-02-18T15:42:10.832Z,15.80
2023-02-18T15:44:39.519Z,15.82
2023-02-18T15:47:10.196Z,15.83
2023-02-18T15:49:40.290Z,15.78
2023-02-18T15:52:10.180Z,15.84
2023-02-18T15:54:42.152Z,15.87
2023-02-18T15:57:15.088Z,15.89
2023-02-18T15:59:48.189Z,15.74
2023-02-18T16:02:20.121Z,15.70
2023-02-18T16:04:53.778Z,15.66
2023-02-18T16:07:26.294Z,15.66
2023-02-18T16:10:10.665Z,15.58
2023-02-18T16:12:40.591Z,15.65
2023-02-18T16:15:17.026Z,15.60
2023-02-18T16:17:46.900Z,15.60
2023-02-18T16:20:26.363Z,15.63
2023-02-18T16:22:56.790Z,15.61
2023-02-18T16:25:27.849Z,15.65
2023-02-18T16:28:06.295Z,15.59
2023-02-18T16:30:36.330Z,15.67
2023-02-18T16:33:05.042Z,15.62
2023-02-18T16:35:48.727Z,15.53
2023-02-18T16:38:21.485Z,15.57
2023-02-18T16:40:50.345Z,15.37
2023-02-18T16:43:20.469Z,15.40
2023-02-18T16:45:51.627Z,15.44
2023-02-18T16:48:25.216Z,15.47
2023-02-18T16:50:54.375Z,15.54
2023-02-18T16:53:24.318Z,15.38
2023-02-18T16:55:52.812Z,15.12
2023-02-18T16:58:21.119Z,15.04
2023-02-18T17:00:52.181Z,14.87
2023-02-18T17:03:21.395Z,14.65
2023-02-18T17:05:49.884Z,14.69
2023-02-18T17:08:23.366Z,14.57
2023-02-18T17:10:56.821Z,14.66
2023-02-18T17:13:27.081Z,14.60
2023-02-18T17:15:56.846Z,14.71
2023-02-18T17:18:25.908Z,14.72
2023-02-18T17:20:57.165Z,14.74
2023-02-18T17:23:26.031Z,14.72
2023-02-18T17:25:55.678Z,14.62
2023-02-18T17:28:24.061Z,14.68
2023-02-18T17:30:57.612Z,14.52
2023-02-18T17:33:26.389Z,14.45
2023-02-18T17:35:54.841Z,14.40
2023-02-18T17:38:23.671Z,14.42
2023-02-18T17:40:52.047Z,14.35
2023-02-18T17:43:23.858Z,14.23
2023-02-18T17:45:53.307Z,14.27
2023-02-18T17:48:22.269Z,14.38
2023-02-18T17:50:50.511Z,14.37
2023-02-18T17:53:19.517Z,14.35
2023-02-18T17:55:48.556Z,14.30
2023-02-18T17:58:17.473Z,14.32
2023-02-18T18:00:48.630Z,14.20
2023-02-18T18:03:17.251Z,14.32
2023-02-18T18:05:49.060Z,14.30
2023-02-18T18:08:17.323Z,14.30
2023-02-18T18:10:50.278Z,14.26
2023-02-18T18:13:25.172Z,14.35
2023-02-18T18:15:59.213Z,14.33
2023-02-18T18:18:28.492Z,14.36
2023-02-18T18:20:59.563Z,14.36
2023-02-18T18:23:28.664Z,14.37
2023-02-18T18:25:59.993Z,14.44
2023-02-18T18:28:29.136Z,14.55
2023-02-18T18:31:06.408Z,14.57
2023-02-18T18:33:41.113Z,14.54
2023-02-18T18:36:12.097Z,14.58
2023-02-18T18:38:40.325Z,14.53
2023-02-18T18:41:14.258Z,14.53
2023-02-18T18:43:42.325Z,14.47
2023-02-18T18:46:14.414Z,14.42
2023-02-18T18:48:42.566Z,14.43
2023-02-18T18:51:15.962Z,14.44
2023-02-18T18:53:44.481Z,14.43
2023-02-18T18:56:13.974Z,14.45
2023-02-18T18:58:42.147Z,14.41
2023-02-18T19:01:18.108Z,14.33
2023-02-18T19:03:46.495Z,14.35
2023-02-18T19:06:15.899Z,14.37
2023-02-18T19:08:45.249Z,14.37
2023-02-18T19:11:14.512Z,14.39
2023-02-18T19:13:43.045Z,14.39
2023-02-18T19:16:18.247Z,14.41
2023-02-18T19:18:46.893Z,14.38
2023-02-18T19:21:18.160Z,14.37
2023-02-18T19:23:49.494Z,14.34
2023-02-18T19:26:17.860Z,14.29
2023-02-18T19:28:49.321Z,14.29
2023-02-18T19:31:24.173Z,14.29
2023-02-18T19:33:53.757Z,14.20
2023-02-18T19:36:22.115Z,14.15
2023-02-18T19:38:52.813Z,14.22
2023-02-18T19:41:21.196Z,14.22
2023-02-18T19:43:49.344Z,14.15
2023-02-18T19:46:23.979Z,14.09
2023-02-18T19:48:56.141Z,14.07
2023-02-18T19:51:24.912Z,14.12
2023-02-18T19:53:55.687Z,14.12
2023-02-18T19:56:26.897Z,14.09
2023-02-18T19:58:56.732Z,14.13
2023-02-18T20:01:26.416Z,14.13
2023-02-18T20:03:54.593Z,14.15
2023-02-18T20:06:22.961Z,14.10
2023-02-18T20:08:51.515Z,14.18
2023-02-18T20:11:20.266Z,14.19
2023-02-18T20:13:49.156Z,14.23
2023-02-18T20:16:17.317Z,14.26
2023-02-18T20:18:49.632Z,14.29
2023-02-18T20:21:17.836Z,14.30
2023-02-18T20:23:45.926Z,14.23
2023-02-18T20:26:15.074Z,14.27
2023-02-18T20:28:44.414Z,14.29
2023-02-18T20:31:14.632Z,14.30
2023-02-18T20:33:45.029Z,14.34
2023-02-18T20:36:15.435Z,14.38
2023-02-18T20:38:43.914Z,14.40
2023-02-18T20:41:18.296Z,14.39
2023-02-18T20:43:46.912Z,14.38
2023-02-18T20:46:17.706Z,14.38
2023-02-18T20:48:46.182Z,14.35
2023-02-18T20:51:17.299Z,14.35
2023-02-18T20:53:48.484Z,14.32
2023-02-18T20:56:19.211Z,14.27
2023-02-18T20:58:58.154Z,14.30
2023-02-18T21:01:26.676Z,14.29
2023-02-18T21:03:55.658Z,14.24
2023-02-18T21:06:26.179Z,14.25
2023-02-18T21:08:55.247Z,14.23
2023-02-18T21:11:27.819Z,14.23
2023-02-18T21:13:57.320Z,14.27
2023-02-18T21:16:26.892Z,14.32
2023-02-18T21:18:57.056Z,14.36
2023-02-18T21:21:27.135Z,14.38
2023-02-18T21:23:55.325Z,14.38
2023-02-18T21:26:25.661Z,14.41
2023-02-18T21:28:55.248Z,14.45
2023-02-18T21:31:25.675Z,14.44
2023-02-18T21:33:54.197Z,14.42
2023-02-18T21:36:23.141Z,14.44
2023-02-18T21:38:58.666Z,14.41
2023-02-18T21:41:32.678Z,14.43
2023-02-18T21:44:05.084Z,14.44
2023-02-18T21:46:37.671Z,14.45
2023-02-18T21:49:07.037Z,14.45
2023-02-18T21:51:55.394Z,14.43
2023-02-18T21:54:28.962Z,14.39
2023-02-18T21:56:58.153Z,14.39
2023-02-18T21:59:30.480Z,14.38
2023-02-18T22:02:04.194Z,14.39
2023-02-18T22:04:37.561Z,14.40
2023-02-18T22:07:08.500Z,14.42
2023-02-18T22:09:41.170Z,14.40
2023-02-18T22:12:13.966Z,14.39
2023-02-18T22:14:43.165Z,14.28
2023-02-18T22:17:11.544Z,14.26
2023-02-18T22:19:40.114Z,14.25
2023-02-18T22:22:08.503Z,14.30
2023-02-18T22:24:37.022Z,14.35
2023-02-18T22:27:06.599Z,14.38
2023-02-18T22:29:34.816Z,14.40
2023-02-18T22:32:03.188Z,14.41
2023-02-18T22:34:33.397Z,14.42
2023-02-18T22:37:01.621Z,14.40
2023-02-18T22:39:29.876Z,14.43
2023-02-18T22:42:01.882Z,14.43
2023-02-18T22:44:39.609Z,14.44
2023-02-18T22:47:17.062Z,14.45
2023-02-18T22:50:05.692Z,14.45
2023-02-18T22:52:49.888Z,14.41
2023-02-18T22:55:33.500Z,14.41
2023-02-18T22:58:08.302Z,14.38
2023-02-18T23:00:50.369Z,14.34
2023-02-18T23:03:23.863Z,14.32
2023-02-18T23:06:06.163Z,14.27
2023-02-18T23:08:45.119Z,14.24
2023-02-18T23:11:22.072Z,14.22
2023-02-18T23:14:09.950Z,14.21
2023-02-18T23:17:01.281Z,14.22
2023-02-18T23:19:35.179Z,14.24
2023-02-18T23:22:12.966Z,14.29
2023-02-18T23:24:52.232Z,14.32
2023-02-18T23:27:54.643Z,14.33
2023-02-18T23:31:00.496Z,14.22
2023-02-18T23:33:36.164Z,14.17
2023-02-18T23:36:26.274Z,14.19
2023-02-18T23:39:07.417Z,14.23
2023-02-18T23:41:39.223Z,14.23
2023-02-18T23:44:11.030Z,14.23
2023-02-18T23:46:40.662Z,14.20
2023-02-18T23:49:10.158Z,14.15
2023-02-18T23:51:38.293Z,14.14
2023-02-18T23:54:06.986Z,14.12
2023-02-18T23:56:35.138Z,14.12
2023-02-18T23:59:07.057Z,14.10
